Latest Coastal Weather Observations for Yeppoon

IDQ60701

Issued at 5:02 pm EST Wednesday 8 February 2023 (issued every 10 minutes, with the page automatically refreshed every 10 minutes)

About coastal observations | Map of coastal stations | Coastal observations for QLD | Marine services | Other Formats
Station Details ID: 033294 Name: YEPPOON THE ESPLANADE Lat: -23.14 Lon: 150.75 Height: 5.5 m
Data from the previous 72 hours. | See also: Recent months at Yeppoon
Date/Time
EST
Wind Sea
Height
m
Swell Vis
km
Cloud Weather Temp
°C
Press
MSL
hPa
Rain since
9am
mm
Dir  Spd
kts
Gust
kts
Height
m
Period
s
Dir
08/05:00pm ESE 15 22 - - - - - - - 26.9 1006.7 0.0
08/04:36pm SE 15 25 - - - - - - - 26.8 1006.8 0.0
08/04:30pm SE 15 24 - - - - - - - 26.7 1006.7 0.0
08/04:10pm SE 15 25 - - - - - - - 26.4 1006.8 0.0
08/04:00pm SE 14 22 - - - - - - - 26.2 1006.7 0.0
08/03:30pm SE 15 26 - - - - - - - 25.8 1006.6 0.0
08/03:21pm SE 15 25 - - - - - - - 25.9 1006.7 0.0
08/03:00pm SE 15 22 - - - - - - - 26.0 1006.8 0.0
08/02:30pm SE 13 22 - - - - - - - 26.8 1006.9 0.0
08/02:00pm SE 13 19 - - - - - - - 26.2 1007.1 0.0
08/01:30pm SE 13 23 - - - - - - - 27.3 1007.4 0.0
08/01:00pm SE 13 21 - - - - - - - 27.4 1007.7 0.0
08/12:30pm SE 13 22 - - - - - - - 27.3 1007.9 0.0
08/12:00pm SE 15 24 - - - - - - - 27.1 1008.0 0.0
08/11:30am SE 13 20 - - - - - - - 27.6 1008.2 0.0
08/11:00am SE 14 22 - - - - - - - 27.5 1008.6 0.0
08/10:30am SE 14 22 - - - - - - - 27.6 1008.8 0.0
08/10:00am SE 13 20 - - - - - - - 27.3 1009.1 0.0
08/09:30am SE 13 22 - - - - - - - 27.3 1009.0 0.0
08/09:00am SE 11 17 - - - - - - - 26.9 1009.0 0.0
08/08:30am SE 12 18 - - - - - - - 26.5 1009.0 0.0
08/08:00am SSE 13 20 - - - - - - - 25.7 1008.9 0.0
08/07:30am SSE 11 16 - - - - - - - 25.5 1008.6 0.0
08/07:00am SSE 12 16 - - - - - - - 25.2 1008.5 0.0
08/06:30am SSE 10 14 - - - - - - - 24.5 1008.5 0.0
08/06:00am SSE 11 15 - - - - - - - 24.3 1008.2 0.0
08/05:30am SSE 11 16 - - - - - - - 24.2 1008.1 0.0
08/05:00am SSE 9 15 - - - - - - - 24.3 1008.0 0.0
08/04:30am SSE 10 14 - - - - - - - 24.6 1008.0 0.0
08/04:00am SSE 9 14 - - - - - - - 24.3 1007.9 0.0
08/03:30am SSE 9 13 - - - - - - - 24.4 1007.8 0.0
08/03:00am SSE 9 15 - - - - - - - 24.6 1008.0 0.0
08/02:30am SSE 9 13 - - - - - - - 25.0 1008.3 0.0
08/02:00am SSE 11 17 - - - - - - - 25.5 1008.4 0.0
08/01:30am ESE 15 22 - - - - - - - 26.5 1008.7 0.0
08/01:00am SE 14 21 - - - - - - - 26.6 1009.1 0.0
08/12:30am SE 13 21 - - - - - - - 26.6 1009.5 0.0
08/12:00am SE 13 20 - - - - - - - 26.6 1010.1 0.0
 
Date/Time
EST
Wind Sea
Height
m
Swell Vis
km
Cloud Weather Temp
°C
Press
MSL
hPa
Rain since
9am
mm
Dir  Spd
kts
Gust
kts
Height
m
Period
s
Dir
07/11:30pm SE 15 23 - - - - - - - 26.7 1010.5 0.0
07/11:00pm SE 15 24 - - - - - - - 26.8 1010.7 0.0
07/10:30pm SE 14 21 - - - - - - - 26.7 1010.8 0.0
07/10:00pm SE 15 24 - - - - - - - 26.9 1011.0 0.0
07/09:30pm ESE 16 28 - - - - - - - 26.9 1010.9 0.0
07/09:08pm ESE 16 26 - - - - - - - 26.9 1010.7 0.0
07/09:00pm ESE 18 27 - - - - - - - 27.0 1010.6 0.0
07/08:30pm ESE 17 25 - - - - - - - 27.1 1010.4 0.0
07/08:06pm ESE 15 25 - - - - - - - 27.0 1010.3 0.0
07/08:00pm ESE 17 25 - - - - - - - 27.0 1010.2 0.0
07/07:30pm ESE 16 24 - - - - - - - 27.1 1010.1 0.0
07/07:08pm ESE 15 26 - - - - - - - 27.2 1009.9 0.0
07/07:00pm ESE 15 24 - - - - - - - 27.1 1009.9 0.0
07/06:43pm ESE 15 25 - - - - - - - 27.3 1009.7 0.0
07/06:30pm ESE 16 22 - - - - - - - 27.2 1009.6 0.0
07/06:00pm ESE 17 25 - - - - - - - 27.4 1009.2 0.0
07/05:30pm ESE 15 25 - - - - - - - 27.5 1008.6 0.0
07/05:00pm ESE 15 21 - - - - - - - 27.9 1008.6 0.0
07/04:38pm ESE 15 25 - - - - - - - 28.2 1008.6 0.0
07/04:30pm ESE 15 24 - - - - - - - 28.2 1008.6 0.0
07/04:00pm ESE 13 19 - - - - - - - 28.6 1008.8 0.0
07/03:30pm ESE 12 21 - - - - - - - 28.2 1009.0 0.0
07/03:00pm ESE 12 19 - - - - - - - 29.1 1009.0 0.0
07/02:30pm SE 12 21 - - - - - - - 28.8 1009.3 0.0
07/02:00pm ESE 15 24 - - - - - - - 28.6 1009.5 0.0
07/01:30pm SE 13 21 - - - - - - - 28.6 1009.8 0.0
07/01:00pm SE 13 19 - - - - - - - 29.0 1009.7 0.0
07/12:30pm ESE 15 24 - - - - - - - 28.4 1009.8 0.0
07/12:00pm ESE 15 24 - - - - - - - 28.5 1010.1 0.0
07/11:30am SE 14 21 - - - - - - - 28.1 1010.6 0.0
07/11:00am SE 14 21 - - - - - - - 28.4 1011.0 0.0
07/10:30am SE 12 19 - - - - - - - 28.7 1011.3 0.0
07/10:00am SE 12 19 - - - - - - - 28.0 1011.3 0.0
07/09:30am SE 12 18 - - - - - - - 27.5 1011.2 0.0
07/09:00am SE 12 18 - - - - - - - 26.9 1011.0 0.2
07/08:30am SSE 11 21 - - - - - - - 26.1 1010.9 0.2
07/08:00am SSE 10 13 - - - - - - - 25.8 1010.8 0.2
07/07:30am SSE 11 15 - - - - - - - 25.8 1010.5 0.2
07/07:00am SSE 11 16 - - - - - - - 25.8 1010.4 0.2
07/06:30am SE 10 18 - - - - - - - 25.8 1009.9 0.2
07/06:00am SSE 11 16 - - - - - - - 25.6 1009.9 0.2
07/05:30am SSE 10 18 - - - - - - - 25.5 1009.5 0.2
07/05:00am SSE 10 15 - - - - - - - 25.6 1009.4 0.2
07/04:30am SSE 11 15 - - - - - - - 25.9 1009.4 0.2
07/04:00am SE 11 19 - - - - - - - 26.3 1009.5 0.2
07/03:30am SE 12 19 - - - - - - - 26.4 1009.5 0.2
07/03:00am SE 12 21 - - - - - - - 26.5 1009.6 0.2
07/02:30am SE 12 17 - - - - - - - 26.8 1009.7 0.2
07/02:00am SE 11 18 - - - - - - - 26.7 1009.9 0.2
07/01:30am SE 13 21 - - - - - - - 26.7 1010.1 0.2
07/01:00am SE 15 22 - - - - - - - 26.6 1010.4 0.2
07/12:30am SE 14 23 - - - - - - - 27.0 1010.7 0.2
07/12:00am SE 13 22 - - - - - - - 27.0 1011.0 0.2
 
Date/Time
EST
Wind Sea
Height
m
Swell Vis
km
Cloud Weather Temp
°C
Press
MSL
hPa
Rain since
9am
mm
Dir  Spd
kts
Gust
kts
Height
m
Period
s
Dir
06/11:37pm ESE 15 25 - - - - - - - 26.8 1011.3 0.2
06/11:30pm SE 14 23 - - - - - - - 26.8 1011.3 0.2
06/11:00pm SE 12 21 - - - - - - - 25.8 1011.5 0.2
06/10:30pm SE 12 25 - - - - - - - 25.6 1011.8 0.0
06/10:00pm SE 14 20 - - - - - - - 26.1 1011.9 0.0
06/09:36pm SE 15 26 - - - - - - - 27.3 1011.7 0.0
06/09:30pm SE 12 18 - - - - - - - 27.4 1011.7 0.0
06/09:00pm SE 13 23 - - - - - - - 27.4 1011.6 0.0
06/08:30pm SE 15 25 - - - - - - - 27.4 1011.6 0.0
06/08:17pm SE 15 26 - - - - - - - 27.5 1011.6 0.0
06/08:00pm ESE 16 23 - - - - - - - 27.5 1011.6 0.0
06/07:37pm SE 16 26 - - - - - - - 27.4 1011.3 0.0
06/07:30pm ESE 17 25 - - - - - - - 27.5 1011.1 0.0
06/07:08pm ESE 15 25 - - - - - - - 27.6 1010.8 0.0
06/07:00pm ESE 15 22 - - - - - - - 27.7 1010.7 0.0
06/06:35pm ESE 15 25 - - - - - - - 27.6 1010.7 0.0
06/06:30pm ESE 16 25 - - - - - - - 27.6 1010.6 0.0
06/06:00pm ESE 14 22 - - - - - - - 27.8 1010.4 0.0
06/05:30pm ESE 14 20 - - - - - - - 28.1 1010.2 0.0
06/05:00pm SE 13 20 - - - - - - - 28.5 1010.1 0.0
06/04:30pm ESE 12 20 - - - - - - - 28.5 1010.0 0.0
06/04:00pm ESE 11 16 - - - - - - - 28.5 1010.0 0.0
06/03:30pm ESE 13 19 - - - - - - - 28.4 1010.1 0.0
06/03:00pm SE 7 11 - - - - - - - 27.9 1010.3 0.0
06/02:30pm ESE 9 14 - - - - - - - 27.1 1010.8 0.0
06/02:00pm ESE 10 16 - - - - - - - 28.1 1010.9 0.0
06/01:30pm SE 10 16 - - - - - - - 27.2 1011.1 0.0
06/01:00pm ESE 11 16 - - - - - - - 28.8 1011.1 0.0
06/12:30pm ESE 12 18 - - - - - - - 29.1 1011.4 0.0
06/12:00pm ESE 12 19 - - - - - - - 29.7 1011.6 0.0
06/11:30am ESE 14 19 - - - - - - - 28.6 1012.0 0.0
06/11:00am ESE 12 17 - - - - - - - 28.5 1012.1 0.0
06/10:30am ESE 11 17 - - - - - - - 28.7 1012.5 0.0
06/10:00am SE 11 16 - - - - - - - 28.1 1012.5 0.0
06/09:30am SE 10 14 - - - - - - - 28.6 1012.6 0.0
06/09:00am SE 9 14 - - - - - - - 28.5 1012.5 0.4
06/08:30am SE 9 13 - - - - - - - 27.7 1012.6 0.4
06/08:00am SE 12 19 - - - - - - - 27.6 1012.2 0.4
06/07:30am SE 9 13 - - - - - - - 27.4 1012.0 0.4
06/07:00am SE 9 13 - - - - - - - 27.3 1012.0 0.4
06/06:30am SSE 8 12 - - - - - - - 27.0 1011.9 0.4
06/06:00am SSE 10 15 - - - - - - - 26.8 1011.5 0.4
06/05:30am SSE 9 13 - - - - - - - 26.9 1011.2 0.4
06/05:00am SSE 9 13 - - - - - - - 26.9 1011.0 0.4
06/04:30am SE 9 14 - - - - - - - 27.1 1010.5 0.4
06/04:00am SE 9 14 - - - - - - - 27.2 1010.2 0.4
06/03:30am SE 9 14 - - - - - - - 27.3 1010.2 0.4
06/03:00am SE 11 17 - - - - - - - 27.5 1010.0 0.4
06/02:30am SE 10 15 - - - - - - - 27.4 1009.9 0.4
06/02:00am SE 11 19 - - - - - - - 27.3 1010.1 0.4
06/01:30am SE 10 15 - - - - - - - 27.4 1010.6 0.4
06/01:00am SE 8 13 - - - - - - - 27.1 1011.1 0.4
06/12:30am SSE 11 17 - - - - - - - 27.2 1011.4 0.2
06/12:00am SE 11 16 - - - - - - - 27.8 1011.5 0.0
 
Date/Time
EST
Wind Sea
Height
m
Swell Vis
km
Cloud Weather Temp
°C
Press
MSL
hPa
Rain since
9am
mm
Dir  Spd
kts
Gust
kts
Height
m
Period
s
Dir
05/11:30pm SE 13 20 - - - - - - - 27.8 1011.5 0.0
05/11:00pm SE 12 17 - - - - - - - 27.8 1011.5 0.0
05/10:30pm SE 12 20 - - - - - - - 27.8 1011.5 0.0
05/10:00pm ESE 15 21 - - - - - - - 28.2 1011.5 0.0
05/09:30pm ESE 15 19 - - - - - - - 28.1 1011.4 0.0
05/09:00pm ESE 14 18 - - - - - - - 28.4 1011.2 0.0
05/08:30pm ESE 14 17 - - - - - - - 28.4 1011.0 0.0
05/08:00pm ESE 12 17 - - - - - - - 28.3 1010.5 0.0
05/07:30pm ESE 15 19 - - - - - - - 28.2 1010.1 0.0
05/07:00pm ESE 14 17 - - - - - - - 28.4 1009.8 0.0
05/06:30pm E 13 17 - - - - - - - 28.5 1009.1 0.0
05/06:00pm ESE 10 14 - - - - - - - 28.6 1008.9 0.0
05/05:30pm ESE 13 16 - - - - - - - 28.8 1008.9 0.0

Other formats

Comma delimited format used in spreadsheet applications
http://www.bom.gov.au/fwo/IDQ60701/IDQ60701.94373.axf

JavaScript Object Notation format (JSON) in row-major order
http://www.bom.gov.au/fwo/IDQ60701/IDQ60701.94373.json

Data quality

Most of these data are generated automatically and are frequently updated. Quality checks on data are not normally performed. It is possible for incorrect values to appear. Refer to information at About Latest Weather Observations and please check the disclaimer before using these data.